GOOY/DKR METAR and TAF weather

Enter ICAO airport designator
Station Type Date Time Source
GOOY METAR 2021/05/14 06:00 UTC NOAA

GOOY 140600Z 30008KT CAVOK 22/19 Q1009


Station Type Date Time Source
GOOY Decoded METAR 2021/05/14 06:00 UTC NOAA

Dakar / Yoff, Senegal (GOOY) 14-44N 017-30W 24M
May 14, 2021 - 02:00 AM EDT / 2021.05.14 0600 UTC
Wind: from the WNW (300 degrees) at 9 MPH (8 KT):0
Visibility: greater than 7 mile(s):0
Temperature: 71 F (22 C)
Dew Point: 66 F (19 C)
Relative Humidity: 83%
Pressure (altimeter): 29.80 in. Hg (1009 hPa)
ob: GOOY 140600Z 30008KT CAVOK 22/19 Q1009
cycle: 6

Station Type Date Time Source
GOOY TAF 2021/05/14 06:55 UTC NOAA

TAF GOOY 140530Z 1406/1512 35010KT CAVOK

Example: see airport list